Time;durP1;ratioP1;P1;durP2;ratioP2;P2;SDS_P1;SDS_P2;PMS_P1;PMS_P2;Temp;Humidity;BMP_temperature;BMP_pressure;BME280_temperature;BME280_humidity;BME280_pressure;Samples;Min_cycle;Max_cycle;Signal;HPM_P1;HPM_P2
2022/05/15 00:01:59;;;;;;;3.00;2.50;;;16.00;99.90;;;;;;5034099;28;20285;-59
2022/05/15 00:04:25;;;;;;;5.90;3.00;;;15.90;99.90;;;;;;5033957;28;20200;-58
2022/05/15 00:06:50;;;;;;;4.80;3.53;;;15.90;99.90;;;;;;5034053;28;20175;-58
2022/05/15 00:09:16;;;;;;;3.40;3.10;;;15.80;99.90;;;;;;5033714;28;20548;-58
2022/05/15 00:11:41;;;;;;;3.87;3.23;;;15.70;99.90;;;;;;5033761;28;20182;-55
2022/05/15 00:14:07;;;;;;;4.50;2.73;;;15.70;99.90;;;;;;5033600;28;20687;-57
2022/05/15 00:16:33;;;;;;;3.70;3.00;;;15.60;99.90;;;;;;5033926;28;20576;-55
2022/05/15 00:18:59;;;;;;;4.13;2.93;;;15.50;99.90;;;;;;5033483;28;20558;-57
2022/05/15 00:21:24;;;;;;;5.27;3.00;;;15.50;99.90;;;;;;5033636;28;20178;-58
2022/05/15 00:23:50;;;;;;;3.47;2.90;;;15.50;99.90;;;;;;5015716;28;20724;-59
2022/05/15 00:26:16;;;;;;;3.57;3.13;;;15.40;99.90;;;;;;5033663;28;20647;-56
2022/05/15 00:28:41;;;;;;;3.10;2.80;;;15.40;99.90;;;;;;5033353;28;20182;-59
2022/05/15 00:31:07;;;;;;;3.63;3.03;;;15.30;99.90;;;;;;5033419;28;20241;-58
2022/05/15 00:33:33;;;;;;;4.33;2.87;;;15.20;99.90;;;;;;5033286;28;20665;-59
2022/05/15 00:35:59;;;;;;;3.97;2.73;;;15.20;99.90;;;;;;5033390;28;20190;-57
2022/05/15 00:38:25;;;;;;;3.87;3.20;;;15.20;99.90;;;;;;5033544;28;20180;-59
2022/05/15 00:40:51;;;;;;;3.80;2.73;;;15.20;99.90;;;;;;5032896;28;20179;-56
2022/05/15 00:43:43;;;;;;;4.47;2.80;;;15.20;99.90;;;;;;5033264;28;20615;-56
2022/05/15 00:46:17;;;;;;;2.97;2.67;;;15.20;99.90;;;;;;5033484;28;20552;-56
2022/05/15 00:48:43;;;;;;;4.33;2.83;;;15.20;99.90;;;;;;5033353;28;20194;-59
2022/05/15 00:51:15;;;;;;;4.33;3.30;;;15.20;99.90;;;;;;5032630;28;20182;-57
2022/05/15 00:53:42;;;;;;;4.80;3.40;;;15.20;99.90;;;;;;5032897;28;20205;-59
2022/05/15 00:56:09;;;;;;;4.00;3.60;;;15.10;99.90;;;;;;5033256;28;20185;-58
2022/05/15 00:58:47;;;;;;;4.77;3.30;;;15.10;99.90;;;;;;5033157;28;20184;-59
2022/05/15 01:01:13;;;;;;;3.93;3.37;;;15.10;99.90;;;;;;5032918;28;20177;-59
2022/05/15 01:03:39;;;;;;;3.90;3.50;;;15.00;99.90;;;;;;5032620;28;20726;-58
2022/05/15 01:06:04;;;;;;;3.43;2.80;;;15.00;99.90;;;;;;5032914;28;20174;-58
2022/05/15 01:08:30;;;;;;;2.83;2.57;;;15.00;99.90;;;;;;5032942;28;20584;-60
2022/05/15 01:11:05;;;;;;;3.50;2.70;;;15.00;99.90;;;;;;5014708;28;20180;-58
2022/05/15 01:13:34;;;;;;;4.10;2.97;;;15.00;99.90;;;;;;5032479;28;20209;-57
2022/05/15 01:16:00;;;;;;;4.60;2.80;;;15.00;99.90;;;;;;5032862;28;20184;-58
2022/05/15 01:18:28;;;;;;;3.50;3.10;;;14.90;99.90;;;;;;5032612;28;20265;-59
2022/05/15 01:20:59;;;;;;;3.53;2.80;;;14.90;99.90;;;;;;5032196;28;20209;-59
2022/05/15 01:23:25;;;;;;;3.57;3.00;;;14.80;99.90;;;;;;5032399;28;20217;-58
2022/05/15 01:25:52;;;;;;;4.33;3.30;;;14.80;99.90;;;;;;5032572;28;20168;-58
2022/05/15 01:28:21;;;;;;;3.50;3.13;;;14.80;99.90;;;;;;5032626;28;20176;-59
2022/05/15 01:30:50;;;;;;;4.13;3.60;;;14.80;99.90;;;;;;5032000;28;20216;-58
2022/05/15 01:33:16;;;;;;;4.63;3.27;;;14.70;99.90;;;;;;5032254;28;20238;-57
2022/05/15 01:35:41;;;;;;;4.07;3.10;;;14.80;99.90;;;;;;5032409;28;20695;-58
2022/05/15 01:38:07;;;;;;;3.30;2.70;;;14.80;99.90;;;;;;5032453;28;20183;-57
2022/05/15 01:40:33;;;;;;;4.23;2.50;;;14.80;99.90;;;;;;5032421;28;20589;-58
2022/05/15 01:43:00;;;;;;;4.60;2.90;;;14.80;99.90;;;;;;5031642;28;20253;-57
2022/05/15 01:45:26;;;;;;;4.43;2.67;;;14.80;99.90;;;;;;5031972;28;20540;-59
2022/05/15 01:47:52;;;;;;;4.90;2.87;;;14.70;99.90;;;;;;5031660;28;20214;-59
2022/05/15 01:50:17;;;;;;;3.50;2.70;;;16.00;99.90;;;;;;5032243;28;20534;-59
2022/05/15 01:52:44;;;;;;;5.57;2.90;;;14.70;99.90;;;;;;5031739;28;20522;-56
2022/05/15 01:55:11;;;;;;;4.00;2.60;;;14.70;99.90;;;;;;5031707;28;20200;-56
2022/05/15 01:57:36;;;;;;;4.40;2.97;;;14.70;99.90;;;;;;5032111;28;20629;-60
2022/05/15 02:00:06;;;;;;;4.80;2.60;;;14.60;99.90;;;;;;5032001;28;20181;-57
2022/05/15 02:02:31;;;;;;;3.30;3.00;;;14.60;99.90;;;;;;5031486;28;20597;-59
2022/05/15 02:04:57;;;;;;;3.00;2.80;;;14.60;99.90;;;;;;5031773;28;20205;-59
2022/05/15 02:07:23;;;;;;;6.73;3.20;;;14.50;99.90;;;;;;5031910;28;20255;-59
2022/05/15 02:09:48;;;;;;;3.90;3.00;;;14.50;99.90;;;;;;5031965;28;20531;-60
2022/05/15 02:12:14;;;;;;;4.00;2.73;;;14.40;99.90;;;;;;5031355;28;20176;-59
2022/05/15 02:14:40;;;;;;;2.63;2.43;;;14.40;99.90;;;;;;5031297;28;20215;-58
2022/05/15 02:17:05;;;;;;;5.03;3.00;;;14.30;99.90;;;;;;5031624;28;20180;-58
2022/05/15 02:19:31;;;;;;;3.90;2.70;;;14.30;99.90;;;;;;5031795;28;20201;-58
2022/05/15 02:21:56;;;;;;;3.10;2.77;;;14.30;99.90;;;;;;5031555;28;20263;-57
2022/05/15 02:24:22;;;;;;;3.20;2.90;;;14.20;99.90;;;;;;5031064;28;20189;-58
2022/05/15 02:26:47;;;;;;;2.93;2.73;;;14.10;99.90;;;;;;5031694;28;20172;-56
2022/05/15 02:29:13;;;;;;;4.40;3.20;;;14.10;99.90;;;;;;5031532;28;20172;-56
2022/05/15 02:31:38;;;;;;;4.10;3.20;;;14.10;99.90;;;;;;5031501;28;20178;-58
2022/05/15 02:34:04;;;;;;;3.93;3.53;;;14.10;99.90;;;;;;5030894;28;20199;-59
2022/05/15 02:36:30;;;;;;;3.60;3.27;;;14.10;99.90;;;;;;5031558;28;20168;-59
2022/05/15 02:38:56;;;;;;;3.83;3.50;;;14.10;99.90;;;;;;5031648;28;20169;-59
2022/05/15 02:41:21;;;;;;;4.63;4.23;;;14.10;99.90;;;;;;5031422;28;20540;-58
2022/05/15 02:43:47;;;;;;;4.33;3.93;;;14.10;99.90;;;;;;5030656;28;20308;-58
2022/05/15 02:46:13;;;;;;;7.30;4.20;;;14.10;99.90;;;;;;5031541;28;20177;-59
2022/05/15 02:51:23;;;;;;;6.03;4.07;;;14.10;99.90;;;;;;5031324;28;20180;-59
2022/05/15 02:53:48;;;;;;;5.47;3.60;;;14.10;99.90;;;;;;5030740;28;20287;-59
2022/05/15 02:56:20;;;;;;;4.60;4.10;;;14.00;99.90;;;;;;5031436;28;20218;-60
2022/05/15 02:58:46;;;;;;;4.40;3.73;;;14.20;99.90;;;;;;5032117;28;20191;-56
2022/05/15 03:01:13;;;;;;;4.67;4.10;;;14.00;99.90;;;;;;5035188;28;20179;-58
2022/05/15 03:03:39;;;;;;;4.77;3.80;;;13.90;99.90;;;;;;5034552;28;20213;-59
2022/05/15 03:06:06;;;;;;;5.53;3.90;;;13.90;99.90;;;;;;5035306;28;20174;-58
2022/05/15 03:08:34;;;;;;;7.13;4.50;;;13.90;99.90;;;;;;5035262;28;20172;-55
2022/05/15 03:10:59;;;;;;;5.83;4.57;;;13.90;99.90;;;;;;5034831;28;20177;-57
2022/05/15 03:13:25;;;;;;;4.73;4.33;;;13.90;99.90;;;;;;5034812;28;20216;-56
2022/05/15 03:15:50;;;;;;;5.23;4.50;;;13.90;99.90;;;;;;5034591;28;20180;-58
2022/05/15 03:18:16;;;;;;;5.87;4.73;;;13.90;99.90;;;;;;5034981;28;20184;-59
2022/05/15 03:20:42;;;;;;;4.10;3.70;;;13.90;99.90;;;;;;5035145;28;20295;-57
2022/05/15 03:23:07;;;;;;;6.77;4.30;;;13.90;99.90;;;;;;5034563;28;20239;-59
2022/05/15 03:25:33;;;;;;;4.73;4.20;;;13.90;99.90;;;;;;5034206;28;20250;-58
2022/05/15 03:27:59;;;;;;;5.70;4.60;;;13.90;99.90;;;;;;5034894;28;20177;-59
2022/05/15 03:30:25;;;;;;;6.27;4.40;;;13.80;99.90;;;;;;5034889;28;20170;-58
2022/05/15 03:32:50;;;;;;;4.40;4.00;;;13.80;99.90;;;;;;5034690;28;20168;-57
2022/05/15 03:35:16;;;;;;;6.80;6.10;;;13.80;99.90;;;;;;5034027;28;20761;-56
2022/05/15 03:37:42;;;;;;;7.50;6.80;;;13.80;99.90;;;;;;5034721;28;20176;-57
2022/05/15 03:40:11;;;;;;;6.27;5.67;;;13.80;99.90;;;;;;5017090;28;20522;-56
2022/05/15 03:42:36;;;;;;;6.10;5.50;;;13.70;99.90;;;;;;5034350;28;20229;-58
2022/05/15 03:45:03;;;;;;;6.77;6.17;;;13.70;99.90;;;;;;5033839;28;20274;-58
2022/05/15 03:47:28;;;;;;;7.60;5.70;;;13.60;99.90;;;;;;5034442;28;20175;-58
2022/05/15 03:49:54;;;;;;;5.87;5.27;;;13.60;99.90;;;;;;5034544;28;20179;-56
2022/05/15 03:52:21;;;;;;;7.00;6.00;;;13.70;99.90;;;;;;5034274;28;20175;-58
2022/05/15 03:54:47;;;;;;;7.93;6.07;;;13.70;99.90;;;;;;5033957;28;20198;-59
2022/05/15 03:57:13;;;;;;;7.07;6.37;;;13.70;99.90;;;;;;5033881;28;20254;-58
2022/05/15 03:59:40;;;;;;;7.03;5.70;;;13.80;99.90;;;;;;5034332;28;20226;-57
2022/05/15 04:02:08;;;;;;;9.37;5.87;;;13.80;99.90;;;;;;5033999;28;20601;-59
2022/05/15 04:04:34;;;;;;;6.13;5.17;;;13.80;99.90;;;;;;5033959;28;20632;-59
2022/05/15 04:07:00;;;;;;;5.83;4.60;;;13.90;99.90;;;;;;5033668;28;20203;-58
2022/05/15 04:09:28;;;;;;;5.40;4.67;;;13.80;99.90;;;;;;5033991;28;20267;-56
2022/05/15 04:11:54;;;;;;;5.63;5.03;;;13.90;99.90;;;;;;5033308;28;20203;-57
2022/05/15 04:14:20;;;;;;;5.87;5.20;;;13.90;99.90;;;;;;5033573;28;20231;-60
2022/05/15 04:16:46;;;;;;;8.23;4.93;;;13.90;99.90;;;;;;5033528;28;20219;-58
2022/05/15 04:19:12;;;;;;;5.20;4.53;;;13.90;99.90;;;;;;5033934;28;20203;-58
2022/05/15 04:21:40;;;;;;;4.40;4.10;;;13.90;99.90;;;;;;5033677;28;20248;-57
2022/05/15 04:24:07;;;;;;;5.17;4.07;;;14.00;99.90;;;;;;5033513;28;20207;-57
2022/05/15 04:26:34;;;;;;;4.03;3.63;;;14.00;99.90;;;;;;5033604;28;20179;-59
2022/05/15 04:29:00;;;;;;;4.60;3.53;;;14.00;99.90;;;;;;5033620;28;20185;-58
2022/05/15 04:31:26;;;;;;;4.43;3.50;;;14.00;99.90;;;;;;5033529;28;20268;-59
2022/05/15 04:33:51;;;;;;;4.13;3.73;;;14.10;99.90;;;;;;5033334;28;20282;-58
2022/05/15 04:36:17;;;;;;;5.07;3.40;;;14.10;99.90;;;;;;5033467;28;20180;-57
2022/05/15 04:38:42;;;;;;;5.53;3.73;;;14.10;99.90;;;;;;5033218;28;20181;-59
2022/05/15 04:41:08;;;;;;;4.20;3.73;;;14.20;99.90;;;;;;5033256;28;20261;-59
2022/05/15 04:43:33;;;;;;;5.43;3.90;;;14.30;99.90;;;;;;5033043;28;20210;-58
2022/05/15 04:46:03;;;;;;;4.30;3.70;;;14.20;99.90;;;;;;5033414;28;20184;-57
2022/05/15 04:48:29;;;;;;;4.13;3.73;;;15.30;99.90;;;;;;5032975;28;20171;-60
2022/05/15 04:50:55;;;;;;;3.97;3.57;;;14.50;99.90;;;;;;5033146;28;20177;-59
2022/05/15 04:53:20;;;;;;;4.67;3.70;;;14.50;99.90;;;;;;5033085;28;20367;-57
2022/05/15 04:55:46;;;;;;;5.27;3.33;;;14.60;99.90;;;;;;5033085;28;20193;-60
2022/05/15 04:58:11;;;;;;;4.20;3.27;;;15.60;99.90;;;;;;5032765;28;20186;-60
2022/05/15 05:00:37;;;;;;;5.20;3.50;;;14.80;99.90;;;;;;5033152;28;20209;-59
2022/05/15 05:03:03;;;;;;;6.17;3.40;;;14.80;99.90;;;;;;5032720;28;20293;-58
2022/05/15 05:05:28;;;;;;;5.63;4.10;;;14.80;99.90;;;;;;5032653;28;20285;-60
2022/05/15 05:07:54;;;;;;;4.97;4.30;;;14.80;99.90;;;;;;5032612;28;20646;-57
2022/05/15 05:10:20;;;;;;;4.33;3.93;;;14.70;99.90;;;;;;5032987;28;20171;-58
2022/05/15 05:12:45;;;;;;;4.93;3.93;;;14.70;99.90;;;;;;5032767;28;20183;-56
2022/05/15 05:15:12;;;;;;;4.37;3.40;;;14.80;99.90;;;;;;5032333;28;20268;-59
2022/05/15 05:17:39;;;;;;;4.03;3.60;;;14.80;99.90;;;;;;5032764;28;20543;-57
2022/05/15 05:20:05;;;;;;;4.43;3.93;;;14.90;99.90;;;;;;5032288;28;20180;-58
2022/05/15 05:22:31;;;;;;;4.50;4.00;;;14.90;99.90;;;;;;5031624;28;20206;-60
2022/05/15 05:24:56;;;;;;;4.20;3.80;;;15.00;99.90;;;;;;5032398;28;20198;-58
2022/05/15 05:27:23;;;;;;;4.87;4.00;;;15.00;99.90;;;;;;5014829;28;20178;-59
2022/05/15 05:29:49;;;;;;;4.57;3.60;;;15.20;99.90;;;;;;5032176;28;20236;-59
2022/05/15 05:32:15;;;;;;;3.90;3.50;;;15.20;99.90;;;;;;5032407;28;20195;-60
2022/05/15 05:34:41;;;;;;;5.10;3.50;;;15.30;99.90;;;;;;5038469;28;20633;-57
2022/05/15 05:37:06;;;;;;;4.40;3.20;;;15.50;99.90;;;;;;5051875;28;20202;-60
2022/05/15 05:39:32;;;;;;;3.40;3.10;;;15.60;99.90;;;;;;5037719;28;20271;-60
2022/05/15 05:41:58;;;;;;;3.50;2.97;;;15.70;99.90;;;;;;5046986;28;20648;-58
2022/05/15 05:44:25;;;;;;;3.63;3.03;;;15.80;99.90;;;;;;5051418;28;20664;-58
2022/05/15 05:46:50;;;;;;;3.53;3.00;;;15.90;99.90;;;;;;5051334;28;20183;-60
2022/05/15 05:49:16;;;;;;;5.40;3.63;;;16.00;99.90;;;;;;5050975;28;20665;-59
2022/05/15 05:51:42;;;;;;;6.20;3.30;;;16.10;99.90;;;;;;5051337;28;20221;-59
2022/05/15 05:54:07;;;;;;;3.37;3.07;;;16.10;99.90;;;;;;5050756;28;20198;-59
2022/05/15 05:56:33;;;;;;;3.40;2.63;;;16.60;99.90;;;;;;5049180;28;20193;-58
2022/05/15 05:58:58;;;;;;;4.20;3.17;;;16.10;99.90;;;;;;5050363;28;20183;-59
2022/05/15 06:01:24;;;;;;;3.93;2.57;;;16.20;99.90;;;;;;5049852;28;20202;-60
2022/05/15 06:06:33;;;;;;;4.43;2.50;;;16.30;99.90;;;;;;5045857;28;20174;-57
2022/05/15 06:08:59;;;;;;;4.33;2.70;;;16.50;99.90;;;;;;5050202;28;20179;-61
2022/05/15 06:11:24;;;;;;;3.93;2.43;;;16.50;99.90;;;;;;5048678;28;20209;-60
2022/05/15 06:13:50;;;;;;;4.33;2.63;;;16.60;99.90;;;;;;5049173;28;20220;-60
2022/05/15 06:16:15;;;;;;;3.80;3.00;;;16.70;99.90;;;;;;5048445;28;20190;-60
2022/05/15 06:18:41;;;;;;;2.83;2.40;;;16.70;99.90;;;;;;5053358;28;20186;-57
2022/05/15 06:21:06;;;;;;;3.10;2.80;;;16.80;99.90;;;;;;5045943;28;20191;-59
2022/05/15 06:23:32;;;;;;;4.73;2.90;;;17.00;99.90;;;;;;5051158;28;20229;-59
2022/05/15 06:25:58;;;;;;;4.17;2.70;;;17.10;99.90;;;;;;5051678;28;20169;-60
2022/05/15 06:28:24;;;;;;;6.30;2.80;;;17.20;99.90;;;;;;5051648;28;20177;-60
2022/05/15 06:30:49;;;;;;;4.13;2.73;;;17.20;99.90;;;;;;5045504;28;20177;-60
2022/05/15 06:33:15;;;;;;;4.23;2.87;;;17.30;99.90;;;;;;5031328;28;20206;-60
2022/05/15 06:35:40;;;;;;;4.23;2.57;;;17.40;99.90;;;;;;5037902;28;20184;-60
2022/05/15 06:38:07;;;;;;;2.73;2.40;;;17.50;99.90;;;;;;5029129;28;20181;-60
2022/05/15 06:40:33;;;;;;;6.30;3.00;;;17.70;99.90;;;;;;5049661;28;20382;-61
2022/05/15 06:42:59;;;;;;;5.77;2.60;;;17.70;99.90;;;;;;5055032;28;20217;-60
2022/05/15 06:45:26;;;;;;;4.07;2.40;;;17.80;99.90;;;;;;5050246;28;20680;-60
2022/05/15 06:47:52;;;;;;;5.63;2.53;;;17.80;99.90;;;;;;5051686;28;20189;-60
2022/05/15 06:50:18;;;;;;;4.63;2.07;;;17.90;99.90;;;;;;5050763;28;20174;-59
2022/05/15 06:52:43;;;;;;;2.77;2.30;;;18.00;99.90;;;;;;5050866;28;20182;-61
2022/05/15 06:55:14;;;;;;;3.30;2.60;;;18.10;99.90;;;;;;5050883;28;20221;-60
2022/05/15 06:57:41;;;;;;;3.10;2.50;;;18.20;99.90;;;;;;5051184;28;20614;-59
2022/05/15 07:00:21;;;;;;;2.73;2.03;;;18.50;99.90;;;;;;5051078;28;20175;-59
2022/05/15 07:02:48;;;;;;;3.67;2.53;;;18.60;99.90;;;;;;5050690;28;20686;-60
2022/05/15 07:05:21;;;;;;;2.80;2.40;;;18.70;99.90;;;;;;5050870;28;20266;-58
2022/05/15 07:07:47;;;;;;;4.13;2.37;;;18.90;99.90;;;;;;5051380;28;20193;-59
2022/05/15 07:10:12;;;;;;;4.07;2.47;;;19.00;99.90;;;;;;5051225;28;20180;-60
2022/05/15 07:12:38;;;;;;;5.33;2.53;;;19.00;99.90;;;;;;5070731;22;20663;-60
2022/05/15 07:15:04;;;;;;;4.73;2.20;;;19.00;99.90;;;;;;5030160;28;20184;-60
2022/05/15 07:17:31;;;;;;;3.07;2.20;;;19.10;99.90;;;;;;5030470;28;20172;-56
2022/05/15 07:19:57;;;;;;;3.70;2.40;;;19.20;99.90;;;;;;5030969;28;20291;-61
2022/05/15 07:22:22;;;;;;;4.07;2.40;;;19.20;99.90;;;;;;5030301;28;20289;-58
2022/05/15 07:24:48;;;;;;;4.27;2.57;;;19.20;99.90;;;;;;5030595;28;20176;-60
2022/05/15 07:27:14;;;;;;;2.47;2.17;;;19.30;99.90;;;;;;5030799;28;20176;-59
2022/05/15 07:29:41;;;;;;;2.27;2.00;;;19.40;99.90;;;;;;5030857;28;20656;-59
2022/05/15 07:32:08;;;;;;;2.50;2.23;;;19.60;99.90;;;;;;5030608;28;20183;-60
2022/05/15 07:34:37;;;;;;;4.27;2.30;;;19.70;99.90;;;;;;5030089;28;20238;-55
2022/05/15 07:37:03;;;;;;;3.20;2.53;;;19.80;99.90;;;;;;5030852;28;20168;-61
2022/05/15 07:39:28;;;;;;;3.83;2.20;;;19.90;99.90;;;;;;5030905;28;20624;-57
2022/05/15 07:41:54;;;;;;;4.10;2.60;;;19.80;99.90;;;;;;5030481;28;20222;-59
2022/05/15 07:44:20;;;;;;;3.47;2.40;;;19.60;99.90;;;;;;5030199;28;20184;-59
2022/05/15 07:46:45;;;;;;;4.47;2.67;;;19.60;99.90;;;;;;5032990;28;20574;-59
2022/05/15 07:49:12;;;;;;;3.30;2.30;;;19.70;99.90;;;;;;5034512;28;20180;-58
2022/05/15 07:51:41;;;;;;;3.33;2.37;;;19.70;99.90;;;;;;5034324;28;20195;-59
2022/05/15 07:54:07;;;;;;;5.03;2.67;;;19.80;99.90;;;;;;5033562;28;20577;-57
2022/05/15 07:56:33;;;;;;;4.37;2.23;;;19.90;99.90;;;;;;5034392;28;20198;-55
2022/05/15 07:58:58;;;;;;;4.67;2.63;;;19.70;99.90;;;;;;5034389;28;20649;-57
2022/05/15 08:01:24;;;;;;;4.33;2.43;;;19.90;99.90;;;;;;5034266;28;20311;-61
2022/05/15 08:03:50;;;;;;;2.70;2.50;;;20.10;99.90;;;;;;5033584;28;20581;-57
2022/05/15 08:09:03;;;;;;;2.93;2.37;;;20.40;99.90;;;;;;5034425;28;20174;-62
2022/05/15 08:11:29;;;;;;;2.93;2.40;;;20.70;99.90;;;;;;5033961;28;20588;-58
2022/05/15 08:13:56;;;;;;;4.70;2.50;;;20.60;99.90;;;;;;5033017;28;20562;-59
2022/05/15 08:16:23;;;;;;;2.43;1.90;;;20.60;99.90;;;;;;5033888;28;20176;-59
2022/05/15 08:24:18;;;;;;;4.25;2.28;;;21.00;99.90;;;;;;5033222;28;20199;-61
2022/05/15 08:26:45;;;;;;;2.20;2.00;;;21.10;99.90;;;;;;5033926;28;20176;-58
2022/05/15 08:29:11;;;;;;;4.05;2.08;;;21.10;99.90;;;;;;5033773;28;20228;-57
2022/05/15 08:31:38;;;;;;;3.05;2.10;;;21.30;99.90;;;;;;5033351;28;20165;-58
2022/05/15 08:34:05;;;;;;;2.72;2.42;;;21.50;99.90;;;;;;5033355;28;20190;-58
2022/05/15 08:36:30;;;;;;;2.40;2.20;;;21.60;99.90;;;;;;5033018;28;20182;-58
2022/05/15 08:38:56;;;;;;;2.65;2.17;;;21.60;99.90;;;;;;5033563;28;20193;-56
2022/05/15 08:41:31;;;;;;;3.10;2.40;;;21.60;99.90;;;;;;5033354;28;20179;-59
2022/05/15 08:44:21;;;;;;;5.82;2.22;;;21.70;99.90;;;;;;5033301;28;20209;-59
2022/05/15 08:47:02;;;;;;;2.95;2.40;;;21.80;99.90;;;;;;5032839;28;20180;-57
2022/05/15 08:49:37;;;;;;;2.92;2.17;;;22.00;99.90;;;;;;5033359;28;20203;-59
2022/05/15 08:52:15;;;;;;;4.70;2.65;;;22.10;99.90;;;;;;5033031;28;20170;-60
2022/05/15 08:54:48;;;;;;;3.50;2.30;;;22.40;99.90;;;;;;5032683;28;20286;-62
2022/05/15 08:57:20;;;;;;;4.63;2.15;;;22.40;99.90;;;;;;5033136;28;20190;-59
2022/05/15 08:59:56;;;;;;;4.57;2.60;;;22.40;99.90;;;;;;5033591;28;20613;-62
2022/05/15 09:02:23;;;;;;;3.47;2.40;;;22.60;99.90;;;;;;5032733;28;20200;-60
2022/05/15 09:04:54;;;;;;;3.90;2.10;;;22.60;99.90;;;;;;5033078;28;20545;-61
2022/05/15 09:07:34;;;;;;;4.18;2.15;;;22.50;99.90;;;;;;5032759;28;20246;-60
2022/05/15 09:10:25;;;;;;;3.22;2.42;;;22.30;98.50;;;;;;5032548;28;20724;-61
2022/05/15 09:13:07;;;;;;;3.33;1.98;;;22.20;99.90;;;;;;5032473;28;20208;-59
2022/05/15 09:15:35;;;;;;;3.88;1.98;;;22.10;99.90;;;;;;5032116;28;20186;-60
2022/05/15 09:18:05;;;;;;;2.63;2.00;;;22.20;99.90;;;;;;5032589;28;20172;-62
2022/05/15 09:20:49;;;;;;;3.00;2.13;;;22.40;99.90;;;;;;5032849;28;20561;-61
2022/05/15 09:23:23;;;;;;;4.82;2.30;;;22.50;98.20;;;;;;5032663;28;20207;-58
2022/05/15 09:25:55;;;;;;;3.00;2.22;;;22.50;99.90;;;;;;5032459;28;20172;-59
2022/05/15 09:28:23;;;;;;;2.53;2.00;;;22.50;99.90;;;;;;5032765;28;20183;-58
2022/05/15 09:30:50;;;;;;;4.68;2.05;;;22.60;99.60;;;;;;5032459;28;20214;-57
2022/05/15 09:33:26;;;;;;;2.60;1.70;;;22.80;98.60;;;;;;5032498;28;20199;-59
2022/05/15 09:36:23;;;;;;;2.75;1.85;;;22.90;97.70;;;;;;5032439;28;20176;-61
2022/05/15 09:39:07;;;;;;;4.13;2.10;;;23.10;97.10;;;;;;5032466;28;20179;-61
2022/05/15 09:44:27;;;;;;;3.25;1.75;;;23.40;96.30;;;;;;5032116;28;20206;-60
2022/05/15 09:47:16;;;;;;;5.38;2.28;;;23.60;96.20;;;;;;5031981;28;20187;-60
2022/05/15 09:49:42;;;;;;;2.20;1.90;;;23.80;95.70;;;;;;4971205;28;20200;-62
2022/05/15 09:52:26;;;;;;;2.58;1.80;;;23.90;94.90;;;;;;4970966;28;20190;-60
2022/05/15 09:54:51;;;;;;;3.45;2.00;;;24.00;95.60;;;;;;4970631;28;20222;-61
2022/05/15 09:57:26;;;;;;;2.05;1.52;;;24.30;97.10;;;;;;4970747;28;20201;-60
2022/05/15 09:59:59;;;;;;;4.80;1.80;;;24.40;94.20;;;;;;4971138;28;20173;-59
2022/05/15 10:02:51;;;;;;;1.60;1.33;;;24.00;93.50;;;;;;4970755;28;20205;-59
2022/05/15 10:05:31;;;;;;;1.88;1.63;;;24.10;93.50;;;;;;4970691;28;20211;-61
2022/05/15 10:08:09;;;;;;;1.95;1.60;;;24.30;93.00;;;;;;4970329;28;20209;-62
2022/05/15 10:10:39;;;;;;;2.15;1.52;;;24.40;93.10;;;;;;4970725;28;20178;-61
2022/05/15 10:13:26;;;;;;;2.78;1.50;;;24.30;91.30;;;;;;4954322;28;20226;-61
2022/05/15 10:15:57;;;;;;;2.60;1.45;;;24.20;93.70;;;;;;4970745;28;20186;-60
2022/05/15 10:18:25;;;;;;;2.33;1.65;;;24.40;92.30;;;;;;4970376;28;20723;-60
2022/05/15 10:20:52;;;;;;;4.15;2.00;;;24.70;93.50;;;;;;4970568;28;20200;-63
2022/05/15 10:23:26;;;;;;;6.43;2.05;;;24.90;93.20;;;;;;4970546;28;20714;-62
2022/05/15 10:26:08;;;;;;;5.13;2.05;;;24.60;93.40;;;;;;4977087;28;20627;-62
2022/05/15 10:28:55;;;;;;;4.75;2.20;;;24.40;93.10;;;;;;5031158;28;20182;-61
2022/05/15 10:31:21;;;;;;;2.45;1.80;;;24.40;92.10;;;;;;5031618;28;20168;-62
2022/05/15 10:33:49;;;;;;;2.63;1.77;;;24.60;93.20;;;;;;5031388;28;20203;-62
2022/05/15 10:36:27;;;;;;;1.75;1.63;;;24.80;93.50;;;;;;5031721;28;20764;-63
2022/05/15 10:39:18;;;;;;;3.15;1.90;;;25.00;96.30;;;;;;5031322;28;20279;-62
2022/05/15 10:42:01;;;;;;;2.30;1.70;;;25.30;94.70;;;;;;5031647;28;20172;-60
2022/05/15 10:44:36;;;;;;;2.13;1.70;;;25.50;94.00;;;;;;5031396;28;20550;-61
2022/05/15 10:47:31;;;;;;;2.03;1.80;;;25.70;94.70;;;;;;5031457;28;20172;-59
2022/05/15 10:50:24;;;;;;;1.60;1.50;;;25.50;92.50;;;;;;4970146;28;20186;-62
2022/05/15 10:57:21;;;;;;;1.92;1.65;;;25.50;93.30;;;;;;4970181;28;20209;-60
2022/05/15 10:59:11;;;;;;;2.00;1.65;;;25.60;91.30;;;;;;4970386;28;20176;-59
2022/05/15 11:01:47;;;;;;;1.98;1.45;;;25.80;92.20;;;;;;4970079;28;20358;-62
2022/05/15 11:04:28;;;;;;;1.63;1.52;;;26.10;93.30;;;;;;4969814;28;20251;-62
2022/05/15 11:07:00;;;;;;;2.50;1.70;;;26.40;95.00;;;;;;4970065;28;20244;-57
2022/05/15 11:09:44;;;;;;;2.10;1.60;;;26.60;92.10;;;;;;4970013;28;20206;-61
2022/05/15 11:12:12;;;;;;;2.17;1.42;;;26.60;90.00;;;;;;4970095;28;20180;-59
2022/05/15 11:14:52;;;;;;;2.20;1.60;;;26.50;89.00;;;;;;4969882;28;20615;-61
2022/05/15 11:17:23;;;;;;;4.70;1.63;;;26.40;89.00;;;;;;4970319;28;20202;-60
2022/05/15 11:19:51;;;;;;;4.72;1.45;;;26.20;89.80;;;;;;4969859;28;20234;-60
2022/05/15 11:22:31;;;;;;;2.65;1.73;;;26.10;85.50;;;;;;4972910;28;20198;-61
2022/05/15 11:25:05;;;;;;;2.03;1.67;;;26.00;85.70;;;;;;4973743;28;20174;-59
2022/05/15 11:27:49;;;;;;;3.90;1.67;;;25.60;85.40;;;;;;5019972;28;20211;-62
2022/05/15 11:30:19;;;;;;;1.77;1.67;;;25.50;86.10;;;;;;5034537;28;20172;-61
2022/05/15 11:32:45;;;;;;;2.33;1.40;;;25.70;90.00;;;;;;5034240;28;20290;-62
2022/05/15 11:35:19;;;;;;;1.90;1.60;;;26.00;89.80;;;;;;5034367;28;20262;-63
2022/05/15 11:37:51;;;;;;;2.42;1.65;;;26.40;90.40;;;;;;5042136;28;20182;-62
2022/05/15 11:40:36;;;;;;;1.58;1.45;;;26.70;89.40;;;;;;5054179;28;20233;-64
2022/05/15 11:43:27;;;;;;;2.72;1.77;;;26.80;86.70;;;;;;5054250;28;20199;-59
2022/05/15 11:46:18;;;;;;;3.63;1.88;;;27.10;89.40;;;;;;5054518;28;20509;-58
2022/05/15 11:48:44;;;;;;;3.25;1.73;;;27.40;87.30;;;;;;5050367;28;20194;-60
2022/05/15 11:51:15;;;;;;;4.88;1.92;;;27.50;86.30;;;;;;5033634;28;20562;-61
2022/05/15 11:53:46;;;;;;;2.40;2.10;;;27.50;84.00;;;;;;5033680;28;20238;-59
2022/05/15 11:56:23;;;;;;;2.53;1.98;;;27.30;86.10;;;;;;5029377;28;20178;-62
2022/05/15 11:58:59;;;;;;;2.95;1.45;;;27.10;87.60;;;;;;5032131;28;20296;-61
2022/05/15 12:01:25;;;;;;;2.78;1.77;;;26.70;85.90;;;;;;5038608;28;20183;-62
2022/05/15 12:03:50;;;;;;;5.30;2.00;;;26.60;87.50;;;;;;5032079;28;20701;-62
2022/05/15 12:06:23;;;;;;;2.83;1.52;;;26.60;87.70;;;;;;5032074;28;20733;-62
2022/05/15 12:09:20;;;;;;;2.97;2.00;;;26.60;90.00;;;;;;5032583;28;20553;-61
2022/05/15 12:11:48;;;;;;;3.30;1.60;;;26.70;87.00;;;;;;5032162;28;20164;-62
2022/05/15 12:14:25;;;;;;;2.10;1.90;;;26.90;89.00;;;;;;5031548;28;20629;-60
2022/05/15 12:17:12;;;;;;;2.40;1.70;;;27.20;84.40;;;;;;5032178;28;20213;-62
2022/05/15 12:19:43;;;;;;;3.53;1.95;;;27.10;87.00;;;;;;5033108;28;20172;-59
2022/05/15 12:22:11;;;;;;;2.15;1.85;;;27.00;84.90;;;;;;5032348;28;20297;-60
2022/05/15 12:24:38;;;;;;;2.13;1.60;;;26.90;88.50;;;;;;5031556;28;20199;-59
2022/05/15 12:27:26;;;;;;;2.65;1.50;;;27.10;90.30;;;;;;5033470;28;20180;-61
2022/05/15 12:29:58;;;;;;;2.97;1.88;;;27.30;88.40;;;;;;5033922;28;20299;-62
2022/05/15 12:32:33;;;;;;;2.15;1.70;;;27.30;84.90;;;;;;5032779;28;20202;-59
2022/05/15 12:34:59;;;;;;;1.73;1.48;;;27.20;81.80;;;;;;5033508;28;20688;-63
2022/05/15 12:37:30;;;;;;;2.67;1.70;;;27.20;85.90;;;;;;5034301;28;20179;-59
2022/05/15 12:39:59;;;;;;;3.80;1.58;;;27.40;81.50;;;;;;5034038;28;20521;-59
2022/05/15 12:42:37;;;;;;;1.55;1.40;;;27.50;83.40;;;;;;5032697;28;20242;-64
2022/05/15 12:45:19;;;;;;;1.52;1.20;;;27.80;84.10;;;;;;5033182;28;20175;-60
2022/05/15 12:48:07;;;;;;;2.10;1.60;;;28.10;81.60;;;;;;5033363;28;20176;-60
2022/05/15 12:50:46;;;;;;;4.25;1.92;;;28.10;84.20;;;;;;5033283;28;20239;-60
2022/05/15 12:53:27;;;;;;;3.88;2.00;;;28.10;83.30;;;;;;5032650;28;20192;-60
2022/05/15 12:56:06;;;;;;;2.90;2.00;;;28.10;82.70;;;;;;5033216;28;20650;-59
2022/05/15 12:58:33;;;;;;;4.00;1.83;;;28.00;89.10;;;;;;5033021;28;20750;-59
2022/05/15 13:01:00;;;;;;;2.58;1.63;;;27.90;82.40;;;;;;5032980;28;20203;-59
2022/05/15 13:03:26;;;;;;;2.45;1.90;;;27.80;82.30;;;;;;5032364;28;20293;-61
2022/05/15 13:05:58;;;;;;;2.92;2.00;;;27.80;82.90;;;;;;5032862;28;20662;-61
2022/05/15 13:08:25;;;;;;;3.47;2.05;;;28.00;84.00;;;;;;5032988;28;20219;-58
2022/05/15 13:11:02;;;;;;;2.97;1.92;;;27.90;86.90;;;;;;5032492;28;20176;-62
2022/05/15 13:13:34;;;;;;;1.98;1.77;;;27.70;83.50;;;;;;5032140;28;20643;-61
2022/05/15 13:18:31;;;;;;;2.30;1.95;;;27.70;84.50;;;;;;5011224;28;20208;-61
2022/05/15 13:21:04;;;;;;;4.00;2.08;;;27.70;83.50;;;;;;5012507;28;20169;-61
2022/05/15 13:23:33;;;;;;;3.38;1.85;;;27.50;81.50;;;;;;5012605;28;20759;-65